createdAt,value
2018-01-25T06:25:57.715Z,3.67
2018-01-25T06:28:29.609Z,3.93
2018-01-25T06:31:02.258Z,3.30
2018-01-25T06:33:35.743Z,4.13
2018-01-25T06:36:07.614Z,3.60
2018-01-25T06:38:39.498Z,3.80
2018-01-25T06:41:12.141Z,4.03
2018-01-25T06:43:44.014Z,3.90
2018-01-25T06:46:15.894Z,4.70
2018-01-25T06:48:48.541Z,4.60
2018-01-25T06:51:20.661Z,5.70
2018-01-25T06:53:52.552Z,6.57
2018-01-25T06:56:24.677Z,6.23
2018-01-25T06:58:56.558Z,7.20
2018-01-25T07:01:28.430Z,7.67
2018-01-25T07:04:00.331Z,7.17
2018-01-25T07:06:32.203Z,6.57
2018-01-25T07:09:04.851Z,7.07
2018-01-25T07:11:36.715Z,6.93
2018-01-25T07:14:08.599Z,7.20
2018-01-25T07:16:41.241Z,6.23
2018-01-25T07:19:13.128Z,6.10
2018-01-25T07:21:45.002Z,7.10
2018-01-25T07:24:17.915Z,6.53
2018-01-25T07:26:49.906Z,5.87
2018-01-25T07:29:21.818Z,7.87
2018-01-25T07:31:54.732Z,7.97
2018-01-25T07:34:26.871Z,8.23
2018-01-25T07:36:58.741Z,6.93
2018-01-25T07:39:30.618Z,7.47
2018-01-25T07:42:02.479Z,7.00
2018-01-25T07:44:34.366Z,8.07
2018-01-25T07:47:06.228Z,8.10
2018-01-25T07:49:38.118Z,8.30
2018-01-25T07:52:10.751Z,8.97
2018-01-25T07:54:42.636Z,9.27
2018-01-25T07:57:14.510Z,9.90
2018-01-25T07:59:47.150Z,10.60
2018-01-25T08:02:19.036Z,11.20
2018-01-25T08:04:50.918Z,10.07
2018-01-25T08:07:23.550Z,10.30
2018-01-25T08:09:56.215Z,10.83
2018-01-25T08:12:28.084Z,10.90
2018-01-25T08:14:59.962Z,10.27
2018-01-25T08:17:31.842Z,12.00
2018-01-25T08:20:04.489Z,11.23
2018-01-25T08:22:36.786Z,10.17
2018-01-25T08:25:08.671Z,10.57
2018-01-25T08:27:40.543Z,10.50
2018-01-25T08:30:12.488Z,11.03
2018-01-25T08:32:45.119Z,11.60
2018-01-25T08:35:17.012Z,11.03
2018-01-25T08:37:49.659Z,10.93
2018-01-25T08:40:21.559Z,10.63
2018-01-25T08:42:54.200Z,10.90
2018-01-25T08:45:26.119Z,12.30
2018-01-25T08:47:57.982Z,11.23
2018-01-25T08:50:29.875Z,11.30
2018-01-25T08:53:02.817Z,10.67
2018-01-25T08:55:34.706Z,11.40
2018-01-25T08:58:06.580Z,12.20
2018-01-25T09:00:38.459Z,12.63
2018-01-25T09:03:10.326Z,11.03
2018-01-25T09:05:42.314Z,11.33
2018-01-25T09:08:14.947Z,12.90
2018-01-25T09:10:46.839Z,12.50
2018-01-25T09:13:19.479Z,10.90
2018-01-25T09:15:51.367Z,12.00
2018-01-25T09:18:23.235Z,12.47
2018-01-25T09:20:55.886Z,13.07
2018-01-25T09:23:27.762Z,12.23
2018-01-25T09:25:59.650Z,12.37
2018-01-25T09:28:31.522Z,11.93
2018-01-25T09:31:03.403Z,12.47
2018-01-25T09:33:35.275Z,9.77
2018-01-25T09:36:07.174Z,12.13
2018-01-25T09:38:39.047Z,11.47
2018-01-25T09:41:10.976Z,10.93
2018-01-25T09:43:42.852Z,11.10
2018-01-25T09:46:15.507Z,10.80
2018-01-25T09:48:47.529Z,11.17
2018-01-25T09:51:19.315Z,10.17
2018-01-25T09:53:51.180Z,9.80
2018-01-25T09:56:23.058Z,9.50
2018-01-25T09:58:54.923Z,8.23
2018-01-25T10:01:26.807Z,8.40
2018-01-25T10:03:58.682Z,7.83
2018-01-25T10:06:30.566Z,6.77
2018-01-25T10:09:02.438Z,6.37
2018-01-25T10:11:34.347Z,6.47
2018-01-25T10:14:06.978Z,6.73
2018-01-25T10:16:38.888Z,6.23
2018-01-25T10:19:10.758Z,6.00
2018-01-25T10:21:42.647Z,6.50
2018-01-25T10:24:14.524Z,6.40
2018-01-25T10:26:46.419Z,6.03
2018-01-25T10:29:19.069Z,4.93
2018-01-25T10:31:50.963Z,5.13
2018-01-25T10:34:23.610Z,5.97
2018-01-25T10:36:55.494Z,5.40
2018-01-25T10:39:28.170Z,4.63
2018-01-25T10:42:00.824Z,4.83
2018-01-25T10:44:32.702Z,4.80
2018-01-25T10:47:05.351Z,4.10
2018-01-25T10:49:37.239Z,4.23
2018-01-25T10:52:09.897Z,3.90
2018-01-25T10:54:42.003Z,3.40
2018-01-25T10:57:13.888Z,4.33
2018-01-25T10:59:45.763Z,3.63
2018-01-25T11:02:17.649Z,3.70
2018-01-25T11:04:49.537Z,3.63
2018-01-25T11:07:22.428Z,3.50
2018-01-25T11:09:54.299Z,3.90
2018-01-25T11:12:26.259Z,4.10
2018-01-25T11:14:58.175Z,6.27
2018-01-25T11:17:30.028Z,4.23
2018-01-25T11:20:01.902Z,3.40
2018-01-25T11:22:33.803Z,4.13
2018-01-25T11:25:05.678Z,3.67
2018-01-25T11:27:37.550Z,4.03
2018-01-25T11:30:09.429Z,4.13
2018-01-25T11:32:41.304Z,3.57
2018-01-25T11:35:13.955Z,3.17
2018-01-25T11:37:45.847Z,2.90
2018-01-25T11:40:18.478Z,3.30
2018-01-25T11:42:50.606Z,3.40
2018-01-25T11:45:22.494Z,3.70
2018-01-25T11:47:56.600Z,3.33
2018-01-25T11:50:28.479Z,3.47
2018-01-25T11:53:00.374Z,3.50
2018-01-25T11:55:32.242Z,3.60
2018-01-25T11:58:04.895Z,3.00
2018-01-25T12:00:36.771Z,3.10
2018-01-25T12:03:08.915Z,2.90
2018-01-25T12:05:41.560Z,3.73
2018-01-25T12:08:13.459Z,4.23
2018-01-25T12:10:46.127Z,4.03
2018-01-25T12:13:18.010Z,3.43
2018-01-25T12:15:50.659Z,3.63
2018-01-25T12:18:22.673Z,3.07
2018-01-25T12:20:55.567Z,2.70
2018-01-25T12:23:27.442Z,2.60
2018-01-25T12:25:59.318Z,3.37
2018-01-25T12:28:31.207Z,3.20
2018-01-25T12:31:03.070Z,3.00
2018-01-25T12:33:34.967Z,2.97
2018-01-25T12:36:06.928Z,3.07
2018-01-25T12:38:39.589Z,3.50
2018-01-25T12:41:12.218Z,3.10
2018-01-25T12:43:44.104Z,2.80
2018-01-25T12:46:16.210Z,3.07
2018-01-25T12:48:48.103Z,2.77
2018-01-25T12:51:20.155Z,2.87
2018-01-25T12:53:52.130Z,2.87
2018-01-25T12:56:23.994Z,3.13
2018-01-25T12:58:55.885Z,3.03
2018-01-25T13:01:27.758Z,3.40
2018-01-25T13:04:00.420Z,3.07
2018-01-25T13:06:32.291Z,3.00
2018-01-25T13:09:04.195Z,2.70
2018-01-25T13:11:36.067Z,2.87
2018-01-25T13:14:07.948Z,3.33
2018-01-25T13:16:40.578Z,2.63
2018-01-25T13:19:12.475Z,2.53
2018-01-25T13:21:44.350Z,2.47
2018-01-25T13:24:16.558Z,2.30
2018-01-25T13:26:48.435Z,2.43
2018-01-25T13:29:20.590Z,2.37
2018-01-25T13:31:52.462Z,2.60
2018-01-25T13:34:24.359Z,2.37
2018-01-25T13:36:56.226Z,3.00
2018-01-25T13:39:28.435Z,2.80
2018-01-25T13:42:00.298Z,1.93
2018-01-25T13:44:32.193Z,2.53
2018-01-25T13:47:04.055Z,3.83
2018-01-25T13:49:37.103Z,4.53
2018-01-25T13:52:08.995Z,3.47
2018-01-25T13:54:40.873Z,3.90
2018-01-25T13:57:12.748Z,3.67
2018-01-25T13:59:44.622Z,3.57
2018-01-25T14:02:17.273Z,3.80
2018-01-25T14:04:49.155Z,4.13
2018-01-25T14:07:21.799Z,4.37
2018-01-25T14:09:53.674Z,3.40
2018-01-25T14:12:25.550Z,3.77
2018-01-25T14:14:57.461Z,2.90
2018-01-25T14:17:29.327Z,3.50
2018-01-25T14:20:01.215Z,3.07
2018-01-25T14:22:33.090Z,2.67
2018-01-25T14:25:04.968Z,2.90
2018-01-25T14:27:37.610Z,2.90
2018-01-25T14:30:09.725Z,2.37
2018-01-25T14:32:41.596Z,3.40
2018-01-25T14:35:13.501Z,3.10
2018-01-25T14:37:45.370Z,2.60
2018-01-25T14:40:17.570Z,2.73
2018-01-25T14:42:49.455Z,2.47
2018-01-25T14:45:21.333Z,2.33
2018-01-25T14:47:53.201Z,2.10
2018-01-25T14:50:25.102Z,2.43
2018-01-25T14:52:56.979Z,2.10
2018-01-25T14:55:28.863Z,2.40
2018-01-25T14:58:00.730Z,2.30
2018-01-25T15:00:32.617Z,2.27
2018-01-25T15:03:04.484Z,2.47
2018-01-25T15:05:36.470Z,2.47
2018-01-25T15:08:09.099Z,2.73
2018-01-25T15:10:41.312Z,2.20
2018-01-25T15:13:13.193Z,2.77
2018-01-25T15:15:45.058Z,3.10
2018-01-25T15:18:16.923Z,2.20
2018-01-25T15:20:48.807Z,2.77
2018-01-25T15:23:20.662Z,2.63
2018-01-25T15:25:52.558Z,2.20
2018-01-25T15:28:25.194Z,2.53
2018-01-25T15:30:57.843Z,2.80
2018-01-25T15:33:29.755Z,2.80
2018-01-25T15:36:01.586Z,2.63
2018-01-25T15:38:33.451Z,2.87
2018-01-25T15:41:05.372Z,2.67
2018-01-25T15:43:37.535Z,2.80
2018-01-25T15:46:09.426Z,2.63
2018-01-25T15:48:41.299Z,2.77
2018-01-25T15:51:13.177Z,3.20
2018-01-25T15:53:45.047Z,3.50
2018-01-25T15:56:16.935Z,3.37
2018-01-25T15:58:48.811Z,3.40
2018-01-25T16:01:20.692Z,3.10
2018-01-25T16:03:52.556Z,3.33
2018-01-25T16:06:24.551Z,3.60
2018-01-25T16:08:56.415Z,3.40
2018-01-25T16:11:28.309Z,3.20
2018-01-25T16:14:00.179Z,3.67
2018-01-25T16:16:32.321Z,3.47
2018-01-25T16:19:04.519Z,3.90
2018-01-25T16:21:36.402Z,4.30
2018-01-25T16:24:08.315Z,3.93
2018-01-25T16:26:40.987Z,3.80
2018-01-25T16:29:13.926Z,3.80
2018-01-25T16:31:45.812Z,3.67
2018-01-25T16:34:17.670Z,3.60
2018-01-25T16:36:49.865Z,4.10
2018-01-25T16:39:21.731Z,3.90
2018-01-25T16:41:53.610Z,4.10
2018-01-25T16:44:25.491Z,4.20
2018-01-25T16:46:57.395Z,4.33
2018-01-25T16:49:30.023Z,4.67
2018-01-25T16:52:01.924Z,4.93
2018-01-25T16:54:34.565Z,4.87
2018-01-25T16:57:07.215Z,5.70
2018-01-25T16:59:39.108Z,5.63
2018-01-25T17:02:11.224Z,6.13
2018-01-25T17:04:43.103Z,5.80
2018-01-25T17:07:14.986Z,6.97
2018-01-25T17:09:46.882Z,6.40
2018-01-25T17:12:18.760Z,5.90
2018-01-25T17:14:51.753Z,6.80
2018-01-25T17:17:23.642Z,7.60
2018-01-25T17:19:55.506Z,6.97
2018-01-25T17:22:27.395Z,12.00
2018-01-25T17:24:59.267Z,11.37
2018-01-25T17:27:31.148Z,10.77
2018-01-25T17:30:03.316Z,9.53
2018-01-25T17:32:35.492Z,6.97
2018-01-25T17:35:07.354Z,7.13
2018-01-25T17:37:39.238Z,6.93
2018-01-25T17:40:11.110Z,7.00
2018-01-25T17:42:42.998Z,6.73
2018-01-25T17:45:14.890Z,5.53
2018-01-25T17:47:47.670Z,5.53
2018-01-25T17:50:19.621Z,5.37
2018-01-25T17:52:52.291Z,5.63
2018-01-25T17:55:24.156Z,5.70
2018-01-25T17:57:56.820Z,5.30
2018-01-25T18:00:28.687Z,5.20
2018-01-25T18:03:01.344Z,4.47
2018-01-25T18:05:39.027Z,4.70
2018-01-25T18:08:10.955Z,5.27
2018-01-25T18:10:43.570Z,5.20
2018-01-25T18:13:15.483Z,4.73
2018-01-25T18:15:47.384Z,5.00
2018-01-25T18:18:19.286Z,4.00
2018-01-25T18:20:51.963Z,4.70
2018-01-25T18:23:24.647Z,3.90
2018-01-25T18:25:57.308Z,3.97
2018-01-25T18:28:29.200Z,4.27
2018-01-25T18:31:01.362Z,4.30
2018-01-25T18:33:33.246Z,4.20
2018-01-25T18:36:05.117Z,4.20
2018-01-25T18:38:37.015Z,4.97
2018-01-25T18:41:08.890Z,5.00
2018-01-25T18:43:41.892Z,5.40
2018-01-25T18:46:14.546Z,4.70
2018-01-25T18:48:47.235Z,7.60
2018-01-25T18:51:19.870Z,12.17
2018-01-25T18:53:51.799Z,13.00
2018-01-25T18:56:23.664Z,10.50
2018-01-25T18:58:55.540Z,9.27
2018-01-25T19:01:27.670Z,8.43
2018-01-25T19:03:59.562Z,7.70
2018-01-25T19:06:31.424Z,7.17
2018-01-25T19:09:03.555Z,8.33
2018-01-25T19:11:35.422Z,9.43
2018-01-25T19:14:07.302Z,8.30
2018-01-25T19:16:39.167Z,8.67
2018-01-25T19:19:11.076Z,8.37
2018-01-25T19:21:42.954Z,7.40
2018-01-25T19:24:14.839Z,8.03
2018-01-25T19:26:46.728Z,7.30
2018-01-25T19:29:18.615Z,6.77
2018-01-25T19:31:51.254Z,7.33
2018-01-25T19:34:23.143Z,6.90
2018-01-25T19:36:55.014Z,7.10
2018-01-25T19:39:27.675Z,7.40
2018-01-25T19:41:59.569Z,6.70
2018-01-25T19:44:31.533Z,6.97
2018-01-25T19:47:04.180Z,6.30
2018-01-25T19:49:36.075Z,6.57
2018-01-25T19:52:07.942Z,6.13
2018-01-25T19:54:39.831Z,5.40
2018-01-25T19:57:11.704Z,6.73
2018-01-25T19:59:43.587Z,5.63
2018-01-25T20:02:15.454Z,5.33
2018-01-25T20:04:48.116Z,5.20
2018-01-25T20:07:20.016Z,6.13
2018-01-25T20:09:51.904Z,5.13
2018-01-25T20:12:23.782Z,4.97
2018-01-25T20:14:55.664Z,5.53
2018-01-25T20:17:27.530Z,5.50
